sensor_id;sensor_type;location;lat;lon;timestamp;pressure;altitude;pressure_sealevel;temperature;humidity
54270;BME280;40181;51.560;13.000;2023-01-29T00:00:27;101973.19;;;-1.31;78.60
54270;BME280;40181;51.560;13.000;2023-01-29T00:02:58;101962.72;;;-1.43;79.46
54270;BME280;40181;51.560;13.000;2023-01-29T00:05:27;101955.91;;;-1.42;79.14
54270;BME280;40181;51.560;13.000;2023-01-29T00:07:56;101953.81;;;-1.36;79.10
54270;BME280;40181;51.560;13.000;2023-01-29T00:10:26;101958.97;;;-1.36;79.42
54270;BME280;40181;51.560;13.000;2023-01-29T00:12:55;101964.13;;;-1.67;79.22
54270;BME280;40181;51.560;13.000;2023-01-29T00:15:24;101955.38;;;-1.59;79.57
54270;BME280;40181;51.560;13.000;2023-01-29T00:17:53;101944.81;;;-1.51;79.48
54270;BME280;40181;51.560;13.000;2023-01-29T00:20:24;101951.78;;;-1.30;78.88
54270;BME280;40181;51.560;13.000;2023-01-29T00:22:53;101952.63;;;-1.81;79.26
54270;BME280;40181;51.560;13.000;2023-01-29T00:25:22;101954.72;;;-1.56;79.22
54270;BME280;40181;51.560;13.000;2023-01-29T00:27:51;101946.47;;;-1.62;79.84
54270;BME280;40181;51.560;13.000;2023-01-29T00:30:20;101943.75;;;-1.64;79.09
54270;BME280;40181;51.560;13.000;2023-01-29T00:32:49;101950.22;;;-1.59;78.95
54270;BME280;40181;51.560;13.000;2023-01-29T00:35:18;101954.59;;;-1.68;79.45
54270;BME280;40181;51.560;13.000;2023-01-29T00:37:50;101977.44;;;-1.92;79.49
54270;BME280;40181;51.560;13.000;2023-01-29T00:40:19;101959.13;;;-1.55;79.11
54270;BME280;40181;51.560;13.000;2023-01-29T00:42:49;101966.91;;;-1.85;79.65
54270;BME280;40181;51.560;13.000;2023-01-29T00:45:30;101958.72;;;-1.70;79.77
54270;BME280;40181;51.560;13.000;2023-01-29T00:48:01;101954.31;;;-1.71;79.12
54270;BME280;40181;51.560;13.000;2023-01-29T00:50:31;101953.03;;;-1.56;79.63
54270;BME280;40181;51.560;13.000;2023-01-29T00:53:02;101946.09;;;-1.46;78.90
54270;BME280;40181;51.560;13.000;2023-01-29T00:55:31;101936.56;;;-1.68;79.53
54270;BME280;40181;51.560;13.000;2023-01-29T00:58:00;101936.16;;;-1.62;79.47
54270;BME280;40181;51.560;13.000;2023-01-29T01:00:29;101931.41;;;-1.68;79.53
54270;BME280;40181;51.560;13.000;2023-01-29T01:02:58;101939.25;;;-1.67;79.75
54270;BME280;40181;51.560;13.000;2023-01-29T01:05:31;101926.06;;;-1.90;79.42
54270;BME280;40181;51.560;13.000;2023-01-29T01:08:04;101928.03;;;-1.67;79.54
54270;BME280;40181;51.560;13.000;2023-01-29T01:10:59;101931.66;;;-1.65;79.32
54270;BME280;40181;51.560;13.000;2023-01-29T01:13:27;101936.56;;;-1.68;79.48
54270;BME280;40181;51.560;13.000;2023-01-29T01:15:56;101936.00;;;-1.74;79.59
54270;BME280;40181;51.560;13.000;2023-01-29T01:18:28;101930.44;;;-1.89;79.76
54270;BME280;40181;51.560;13.000;2023-01-29T01:20:58;101932.84;;;-2.12;80.65
54270;BME280;40181;51.560;13.000;2023-01-29T01:23:29;101923.09;;;-1.95;80.29
54270;BME280;40181;51.560;13.000;2023-01-29T01:25:59;101916.53;;;-2.02;80.72
54270;BME280;40181;51.560;13.000;2023-01-29T01:28:28;101915.34;;;-2.05;80.39
54270;BME280;40181;51.560;13.000;2023-01-29T01:31:07;101910.03;;;-2.17;81.11
54270;BME280;40181;51.560;13.000;2023-01-29T01:33:37;101904.53;;;-2.41;82.39
54270;BME280;40181;51.560;13.000;2023-01-29T01:36:07;101896.03;;;-2.11;81.72
54270;BME280;40181;51.560;13.000;2023-01-29T01:38:40;101896.75;;;-2.32;82.23
54270;BME280;40181;51.560;13.000;2023-01-29T01:41:12;101888.28;;;-2.21;81.86
54270;BME280;40181;51.560;13.000;2023-01-29T01:43:47;101899.97;;;-2.25;81.71
54270;BME280;40181;51.560;13.000;2023-01-29T01:46:17;101894.09;;;-2.03;81.58
54270;BME280;40181;51.560;13.000;2023-01-29T01:48:49;101896.28;;;-2.08;81.21
54270;BME280;40181;51.560;13.000;2023-01-29T01:51:22;101895.09;;;-2.22;82.12
54270;BME280;40181;51.560;13.000;2023-01-29T01:54:00;101900.78;;;-2.45;82.19
54270;BME280;40181;51.560;13.000;2023-01-29T01:56:35;101905.94;;;-2.45;82.63
54270;BME280;40181;51.560;13.000;2023-01-29T01:59:10;101892.78;;;-2.18;81.95
54270;BME280;40181;51.560;13.000;2023-01-29T02:01:42;101892.22;;;-2.35;82.19
54270;BME280;40181;51.560;13.000;2023-01-29T02:04:16;101902.28;;;-2.28;82.80
54270;BME280;40181;51.560;13.000;2023-01-29T02:07:02;101899.34;;;-2.22;82.87
54270;BME280;40181;51.560;13.000;2023-01-29T02:09:51;101897.16;;;-2.17;82.84
54270;BME280;40181;51.560;13.000;2023-01-29T02:12:22;101901.16;;;-2.21;82.98
54270;BME280;40181;51.560;13.000;2023-01-29T02:14:53;101908.88;;;-2.51;84.65
54270;BME280;40181;51.560;13.000;2023-01-29T02:17:22;101906.47;;;-2.49;84.99
54270;BME280;40181;51.560;13.000;2023-01-29T02:19:59;101898.53;;;-2.31;84.02
54270;BME280;40181;51.560;13.000;2023-01-29T02:22:48;101901.63;;;-2.25;84.60
54270;BME280;40181;51.560;13.000;2023-01-29T02:25:46;101897.81;;;-2.50;84.81
54270;BME280;40181;51.560;13.000;2023-01-29T02:28:44;101911.66;;;-2.28;84.72
54270;BME280;40181;51.560;13.000;2023-01-29T02:31:24;101918.84;;;-2.34;84.88
54270;BME280;40181;51.560;13.000;2023-01-29T02:34:05;101904.66;;;-2.50;85.08
54270;BME280;40181;51.560;13.000;2023-01-29T02:36:55;101890.44;;;-2.26;84.66
54270;BME280;40181;51.560;13.000;2023-01-29T02:39:32;101904.91;;;-2.47;85.28
54270;BME280;40181;51.560;13.000;2023-01-29T02:42:12;101912.09;;;-2.53;85.91
54270;BME280;40181;51.560;13.000;2023-01-29T02:44:52;101907.13;;;-2.41;85.80
54270;BME280;40181;51.560;13.000;2023-01-29T02:47:29;101919.31;;;-2.49;85.61
54270;BME280;40181;51.560;13.000;2023-01-29T02:50:07;101908.03;;;-2.41;85.28
54270;BME280;40181;51.560;13.000;2023-01-29T02:52:44;101907.03;;;-2.62;86.04
54270;BME280;40181;51.560;13.000;2023-01-29T02:55:24;101896.59;;;-2.64;86.19
54270;BME280;40181;51.560;13.000;2023-01-29T02:57:59;101895.28;;;-2.39;86.08
54270;BME280;40181;51.560;13.000;2023-01-29T03:00:37;101895.88;;;-2.52;86.18
54270;BME280;40181;51.560;13.000;2023-01-29T03:03:12;101881.56;;;-2.59;86.36
54270;BME280;40181;51.560;13.000;2023-01-29T03:05:49;101883.66;;;-2.55;86.58
54270;BME280;40181;51.560;13.000;2023-01-29T03:08:27;101892.50;;;-2.61;86.50
54270;BME280;40181;51.560;13.000;2023-01-29T03:11:09;101881.16;;;-2.64;86.46
54270;BME280;40181;51.560;13.000;2023-01-29T03:13:44;101876.72;;;-2.56;86.45
54270;BME280;40181;51.560;13.000;2023-01-29T03:16:21;101872.31;;;-2.57;85.69
54270;BME280;40181;51.560;13.000;2023-01-29T03:18:55;101870.88;;;-2.64;86.04
54270;BME280;40181;51.560;13.000;2023-01-29T03:21:30;101877.94;;;-2.71;86.10
54270;BME280;40181;51.560;13.000;2023-01-29T03:24:15;101873.38;;;-2.55;86.26
54270;BME280;40181;51.560;13.000;2023-01-29T03:27:11;101867.09;;;-2.48;85.74
54270;BME280;40181;51.560;13.000;2023-01-29T03:29:55;101866.72;;;-2.42;85.49
54270;BME280;40181;51.560;13.000;2023-01-29T03:32:42;101880.00;;;-2.67;86.45
54270;BME280;40181;51.560;13.000;2023-01-29T03:35:14;101869.41;;;-2.51;85.52
54270;BME280;40181;51.560;13.000;2023-01-29T03:38:02;101873.09;;;-2.58;86.09
54270;BME280;40181;51.560;13.000;2023-01-29T03:40:35;101858.81;;;-2.54;85.72
54270;BME280;40181;51.560;13.000;2023-01-29T03:43:18;101872.19;;;-2.58;85.70
54270;BME280;40181;51.560;13.000;2023-01-29T03:46:01;101872.50;;;-2.45;85.47
54270;BME280;40181;51.560;13.000;2023-01-29T03:48:39;101876.03;;;-2.64;85.71
54270;BME280;40181;51.560;13.000;2023-01-29T03:51:18;101884.28;;;-2.57;86.26
54270;BME280;40181;51.560;13.000;2023-01-29T03:53:56;101879.47;;;-2.73;86.37
54270;BME280;40181;51.560;13.000;2023-01-29T03:56:38;101877.75;;;-2.54;86.57
54270;BME280;40181;51.560;13.000;2023-01-29T03:59:22;101868.94;;;-2.66;86.90
54270;BME280;40181;51.560;13.000;2023-01-29T04:01:59;101867.50;;;-2.73;86.88
54270;BME280;40181;51.560;13.000;2023-01-29T04:04:33;101871.91;;;-2.61;86.88
54270;BME280;40181;51.560;13.000;2023-01-29T04:07:09;101872.97;;;-2.59;86.50
54270;BME280;40181;51.560;13.000;2023-01-29T04:09:42;101863.31;;;-2.62;86.42
54270;BME280;40181;51.560;13.000;2023-01-29T04:12:18;101855.44;;;-2.64;86.70
54270;BME280;40181;51.560;13.000;2023-01-29T04:14:50;101850.63;;;-2.50;86.44
54270;BME280;40181;51.560;13.000;2023-01-29T04:17:24;101848.75;;;-2.61;86.33
54270;BME280;40181;51.560;13.000;2023-01-29T04:20:04;101844.38;;;-2.62;87.15
54270;BME280;40181;51.560;13.000;2023-01-29T04:22:35;101839.72;;;-2.37;86.79
54270;BME280;40181;51.560;13.000;2023-01-29T04:25:10;101838.59;;;-2.60;87.58
54270;BME280;40181;51.560;13.000;2023-01-29T04:27:51;101831.28;;;-2.55;87.26
54270;BME280;40181;51.560;13.000;2023-01-29T04:30:36;101827.34;;;-2.41;87.04
54270;BME280;40181;51.560;13.000;2023-01-29T04:33:17;101815.59;;;-2.58;87.75
54270;BME280;40181;51.560;13.000;2023-01-29T04:36:15;101814.22;;;-2.84;89.12
54270;BME280;40181;51.560;13.000;2023-01-29T04:39:01;101814.91;;;-2.66;88.57
54270;BME280;40181;51.560;13.000;2023-01-29T04:41:39;101814.63;;;-2.80;89.22
54270;BME280;40181;51.560;13.000;2023-01-29T04:44:30;101809.75;;;-2.66;89.69
54270;BME280;40181;51.560;13.000;2023-01-29T04:47:07;101799.19;;;-2.80;89.35
54270;BME280;40181;51.560;13.000;2023-01-29T04:49:45;101782.38;;;-2.66;89.02
54270;BME280;40181;51.560;13.000;2023-01-29T04:52:29;101780.19;;;-2.61;89.32
54270;BME280;40181;51.560;13.000;2023-01-29T04:55:06;101780.59;;;-2.56;89.49
54270;BME280;40181;51.560;13.000;2023-01-29T04:57:43;101774.66;;;-2.66;89.53
54270;BME280;40181;51.560;13.000;2023-01-29T05:00:18;101761.22;;;-2.82;89.90
54270;BME280;40181;51.560;13.000;2023-01-29T05:02:50;101760.78;;;-2.68;90.65
54270;BME280;40181;51.560;13.000;2023-01-29T05:05:20;101774.91;;;-2.62;90.65
54270;BME280;40181;51.560;13.000;2023-01-29T05:07:53;101755.50;;;-2.59;90.32
54270;BME280;40181;51.560;13.000;2023-01-29T05:10:24;101755.41;;;-2.50;90.29
54270;BME280;40181;51.560;13.000;2023-01-29T05:12:58;101769.66;;;-2.54;89.96
54270;BME280;40181;51.560;13.000;2023-01-29T05:15:32;101742.78;;;-2.47;89.51
54270;BME280;40181;51.560;13.000;2023-01-29T05:18:04;101752.19;;;-2.47;89.68
54270;BME280;40181;51.560;13.000;2023-01-29T05:20:36;101740.19;;;-2.57;90.32
54270;BME280;40181;51.560;13.000;2023-01-29T05:23:14;101745.34;;;-2.68;90.46
54270;BME280;40181;51.560;13.000;2023-01-29T05:25:44;101746.59;;;-2.73;90.41
54270;BME280;40181;51.560;13.000;2023-01-29T05:28:14;101764.53;;;-2.54;90.65
54270;BME280;40181;51.560;13.000;2023-01-29T05:30:42;101752.03;;;-2.70;90.02
54270;BME280;40181;51.560;13.000;2023-01-29T05:33:15;101741.84;;;-2.58;90.42
54270;BME280;40181;51.560;13.000;2023-01-29T05:35:45;101744.81;;;-2.53;90.29
54270;BME280;40181;51.560;13.000;2023-01-29T05:38:18;101731.84;;;-2.44;89.63
54270;BME280;40181;51.560;13.000;2023-01-29T05:40:47;101754.09;;;-2.45;89.59
54270;BME280;40181;51.560;13.000;2023-01-29T05:43:18;101748.72;;;-2.38;89.45
54270;BME280;40181;51.560;13.000;2023-01-29T05:45:51;101756.28;;;-2.39;89.59
54270;BME280;40181;51.560;13.000;2023-01-29T05:48:22;101744.72;;;-2.34;89.26
54270;BME280;40181;51.560;13.000;2023-01-29T05:50:51;101757.19;;;-2.59;89.92
54270;BME280;40181;51.560;13.000;2023-01-29T05:53:23;101754.00;;;-2.46;89.67
54270;BME280;40181;51.560;13.000;2023-01-29T05:55:52;101750.75;;;-2.54;89.90
54270;BME280;40181;51.560;13.000;2023-01-29T05:58:22;101756.03;;;-2.42;89.35
54270;BME280;40181;51.560;13.000;2023-01-29T06:00:51;101759.00;;;-2.38;89.19
54270;BME280;40181;51.560;13.000;2023-01-29T06:03:20;101770.09;;;-2.39;89.53
54270;BME280;40181;51.560;13.000;2023-01-29T06:05:49;101764.78;;;-2.51;89.90
54270;BME280;40181;51.560;13.000;2023-01-29T06:08:18;101772.25;;;-2.43;89.62
54270;BME280;40181;51.560;13.000;2023-01-29T06:10:50;101780.81;;;-2.64;90.08
54270;BME280;40181;51.560;13.000;2023-01-29T06:13:19;101770.94;;;-2.59;91.57
54270;BME280;40181;51.560;13.000;2023-01-29T06:15:48;101772.63;;;-2.49;90.80
54270;BME280;40181;51.560;13.000;2023-01-29T06:18:17;101785.50;;;-2.59;90.82
54270;BME280;40181;51.560;13.000;2023-01-29T06:20:46;101791.44;;;-2.50;90.70
54270;BME280;40181;51.560;13.000;2023-01-29T06:23:15;101779.69;;;-2.57;91.00
54270;BME280;40181;51.560;13.000;2023-01-29T06:25:44;101790.66;;;-2.39;90.29
54270;BME280;40181;51.560;13.000;2023-01-29T06:28:16;101788.94;;;-2.59;90.73
54270;BME280;40181;51.560;13.000;2023-01-29T06:30:45;101812.44;;;-2.35;90.15
54270;BME280;40181;51.560;13.000;2023-01-29T06:33:14;101820.53;;;-2.41;90.39
54270;BME280;40181;51.560;13.000;2023-01-29T06:35:43;101829.41;;;-2.37;90.50
54270;BME280;40181;51.560;13.000;2023-01-29T06:38:12;101818.34;;;-2.46;91.13
54270;BME280;40181;51.560;13.000;2023-01-29T06:40:41;101822.16;;;-2.52;91.31
54270;BME280;40181;51.560;13.000;2023-01-29T06:43:10;101828.56;;;-2.57;91.58
54270;BME280;40181;51.560;13.000;2023-01-29T06:45:48;101838.13;;;-2.56;90.88
54270;BME280;40181;51.560;13.000;2023-01-29T06:48:17;101837.66;;;-2.31;89.90
54270;BME280;40181;51.560;13.000;2023-01-29T06:50:46;101850.63;;;-2.50;90.02
54270;BME280;40181;51.560;13.000;2023-01-29T06:53:16;101837.28;;;-2.25;89.37
54270;BME280;40181;51.560;13.000;2023-01-29T06:55:50;101839.97;;;-2.34;89.06
54270;BME280;40181;51.560;13.000;2023-01-29T06:58:20;101848.84;;;-2.41;90.13
54270;BME280;40181;51.560;13.000;2023-01-29T07:00:51;101853.25;;;-2.29;89.86
54270;BME280;40181;51.560;13.000;2023-01-29T07:03:20;101843.94;;;-2.38;90.06
54270;BME280;40181;51.560;13.000;2023-01-29T07:05:50;101861.09;;;-2.38;90.47
54270;BME280;40181;51.560;13.000;2023-01-29T07:08:19;101846.91;;;-2.33;90.43
54270;BME280;40181;51.560;13.000;2023-01-29T07:10:49;101844.69;;;-2.49;90.71
54270;BME280;40181;51.560;13.000;2023-01-29T07:13:18;101870.28;;;-2.51;91.18
54270;BME280;40181;51.560;13.000;2023-01-29T07:15:47;101855.81;;;-2.29;90.54
54270;BME280;40181;51.560;13.000;2023-01-29T07:18:18;101861.91;;;-2.58;91.27
54270;BME280;40181;51.560;13.000;2023-01-29T07:20:48;101865.66;;;-2.55;91.20
54270;BME280;40181;51.560;13.000;2023-01-29T07:23:17;101856.56;;;-2.41;91.32
54270;BME280;40181;51.560;13.000;2023-01-29T07:25:46;101861.81;;;-2.39;90.99
54270;BME280;40181;51.560;13.000;2023-01-29T07:28:16;101844.34;;;-2.33;90.51
54270;BME280;40181;51.560;13.000;2023-01-29T07:30:45;101839.81;;;-2.46;90.79
54270;BME280;40181;51.560;13.000;2023-01-29T07:33:17;101840.38;;;-2.19;90.13
54270;BME280;40181;51.560;13.000;2023-01-29T07:35:46;101847.31;;;-2.28;90.52
54270;BME280;40181;51.560;13.000;2023-01-29T07:38:15;101857.59;;;-2.39;90.83
54270;BME280;40181;51.560;13.000;2023-01-29T07:40:44;101841.94;;;-2.21;90.27
54270;BME280;40181;51.560;13.000;2023-01-29T07:43:14;101842.41;;;-2.36;90.41
54270;BME280;40181;51.560;13.000;2023-01-29T07:45:43;101836.13;;;-2.29;90.36
54270;BME280;40181;51.560;13.000;2023-01-29T07:48:12;101831.72;;;-2.40;90.93
54270;BME280;40181;51.560;13.000;2023-01-29T07:50:44;101823.09;;;-2.41;90.73
54270;BME280;40181;51.560;13.000;2023-01-29T07:53:14;101815.50;;;-2.39;90.77
54270;BME280;40181;51.560;13.000;2023-01-29T07:55:43;101805.47;;;-2.36;90.44
54270;BME280;40181;51.560;13.000;2023-01-29T07:58:12;101801.22;;;-2.36;90.61
54270;BME280;40181;51.560;13.000;2023-01-29T08:00:41;101805.34;;;-2.27;90.65
54270;BME280;40181;51.560;13.000;2023-01-29T08:03:13;101815.50;;;-2.39;90.59
54270;BME280;40181;51.560;13.000;2023-01-29T08:05:47;101784.22;;;-2.44;90.65
54270;BME280;40181;51.560;13.000;2023-01-29T08:08:16;101776.41;;;-2.35;90.87
54270;BME280;40181;51.560;13.000;2023-01-29T08:10:45;101789.81;;;-2.29;90.57
54270;BME280;40181;51.560;13.000;2023-01-29T08:13:14;101779.47;;;-2.39;90.27
54270;BME280;40181;51.560;13.000;2023-01-29T08:15:43;101782.47;;;-2.24;89.90
54270;BME280;40181;51.560;13.000;2023-01-29T08:18:13;101792.38;;;-2.29;90.00
54270;BME280;40181;51.560;13.000;2023-01-29T08:20:42;101801.38;;;-2.24;89.90
54270;BME280;40181;51.560;13.000;2023-01-29T08:23:14;101814.41;;;-2.12;89.84
54270;BME280;40181;51.560;13.000;2023-01-29T08:25:43;101811.97;;;-2.10;89.64
54270;BME280;40181;51.560;13.000;2023-01-29T08:28:12;101813.38;;;-2.24;89.74
54270;BME280;40181;51.560;13.000;2023-01-29T08:30:42;101805.34;;;-2.27;90.22
54270;BME280;40181;51.560;13.000;2023-01-29T08:33:11;101813.38;;;-2.14;89.98
54270;BME280;40181;51.560;13.000;2023-01-29T08:35:40;101821.56;;;-2.28;90.38
54270;BME280;40181;51.560;13.000;2023-01-29T08:38:11;101815.56;;;-2.18;90.16
54270;BME280;40181;51.560;13.000;2023-01-29T08:40:40;101803.00;;;-2.45;91.19
54270;BME280;40181;51.560;13.000;2023-01-29T08:43:11;101786.72;;;-2.14;91.34
54270;BME280;40181;51.560;13.000;2023-01-29T08:45:42;101794.56;;;-2.23;91.03
54270;BME280;40181;51.560;13.000;2023-01-29T08:48:11;101797.91;;;-2.03;90.76
54270;BME280;40181;51.560;13.000;2023-01-29T08:50:40;101800.25;;;-1.96;90.88
54270;BME280;40181;51.560;13.000;2023-01-29T08:53:12;101801.13;;;-1.96;91.14
54270;BME280;40181;51.560;13.000;2023-01-29T08:55:41;101813.13;;;-2.06;92.05
54270;BME280;40181;51.560;13.000;2023-01-29T08:58:10;101800.13;;;-1.98;91.88
54270;BME280;40181;51.560;13.000;2023-01-29T09:00:40;101807.28;;;-2.25;93.47
54270;BME280;40181;51.560;13.000;2023-01-29T09:03:09;101795.84;;;-2.08;93.74
54270;BME280;40181;51.560;13.000;2023-01-29T09:05:39;101798.66;;;-2.25;95.43
54270;BME280;40181;51.560;13.000;2023-01-29T09:08:09;101786.94;;;-2.22;95.33
54270;BME280;40181;51.560;13.000;2023-01-29T09:10:40;101792.38;;;-2.08;95.34
54270;BME280;40181;51.560;13.000;2023-01-29T09:13:09;101780.91;;;-2.32;95.39
54270;BME280;40181;51.560;13.000;2023-01-29T09:15:38;101782.09;;;-1.98;95.53
54270;BME280;40181;51.560;13.000;2023-01-29T09:18:08;101760.06;;;-2.15;96.55
54270;BME280;40181;51.560;13.000;2023-01-29T09:20:37;101753.63;;;-2.10;96.95
54270;BME280;40181;51.560;13.000;2023-01-29T09:23:07;101749.63;;;-2.27;97.66
54270;BME280;40181;51.560;13.000;2023-01-29T09:25:41;101754.16;;;-2.14;97.78
54270;BME280;40181;51.560;13.000;2023-01-29T09:28:11;101770.88;;;-1.98;97.33
54270;BME280;40181;51.560;13.000;2023-01-29T09:30:41;101762.88;;;-1.91;96.91
54270;BME280;40181;51.560;13.000;2023-01-29T09:33:14;101765.84;;;-1.97;97.62
54270;BME280;40181;51.560;13.000;2023-01-29T09:35:44;101761.63;;;-2.06;97.56
54270;BME280;40181;51.560;13.000;2023-01-29T09:38:13;101767.41;;;-2.09;97.95
54270;BME280;40181;51.560;13.000;2023-01-29T09:40:52;101769.56;;;-1.83;97.21
54270;BME280;40181;51.560;13.000;2023-01-29T09:43:33;101774.88;;;-1.91;97.32
54270;BME280;40181;51.560;13.000;2023-01-29T09:46:15;101769.19;;;-1.77;96.59
54270;BME280;40181;51.560;13.000;2023-01-29T09:48:51;101761.34;;;-1.89;97.11
54270;BME280;40181;51.560;13.000;2023-01-29T09:51:30;101763.81;;;-2.11;96.83
54270;BME280;40181;51.560;13.000;2023-01-29T09:54:11;101766.09;;;-2.04;96.73
54270;BME280;40181;51.560;13.000;2023-01-29T09:56:47;101753.72;;;-1.77;95.80
54270;BME280;40181;51.560;13.000;2023-01-29T09:59:23;101743.31;;;-1.78;95.98
54270;BME280;40181;51.560;13.000;2023-01-29T10:02:01;101749.63;;;-1.75;95.79
54270;BME280;40181;51.560;13.000;2023-01-29T10:05:03;101745.22;;;-1.76;95.33
54270;BME280;40181;51.560;13.000;2023-01-29T10:07:49;101744.47;;;-1.75;94.99
54270;BME280;40181;51.560;13.000;2023-01-29T10:10:48;101753.59;;;-1.68;95.24
54270;BME280;40181;51.560;13.000;2023-01-29T10:13:27;101735.81;;;-1.65;95.59
54270;BME280;40181;51.560;13.000;2023-01-29T10:16:11;101731.41;;;-1.56;94.51
54270;BME280;40181;51.560;13.000;2023-01-29T10:19:17;101733.13;;;-1.77;94.63
54270;BME280;40181;51.560;13.000;2023-01-29T10:22:18;101729.97;;;-1.52;94.49
54270;BME280;40181;51.560;13.000;2023-01-29T10:25:13;101717.97;;;-1.41;93.59
54270;BME280;40181;51.560;13.000;2023-01-29T10:27:47;101725.59;;;-1.53;93.80
54270;BME280;40181;51.560;13.000;2023-01-29T10:30:29;101719.16;;;-1.48;93.36
54270;BME280;40181;51.560;13.000;2023-01-29T10:33:02;101712.44;;;-1.46;93.10
54270;BME280;40181;51.560;13.000;2023-01-29T10:35:33;101706.91;;;-1.50;93.31
54270;BME280;40181;51.560;13.000;2023-01-29T10:38:14;101709.63;;;-1.59;93.38
54270;BME280;40181;51.560;13.000;2023-01-29T10:40:55;101712.44;;;-1.46;93.22
54270;BME280;40181;51.560;13.000;2023-01-29T10:43:35;101700.97;;;-1.49;93.51
54270;BME280;40181;51.560;13.000;2023-01-29T10:46:20;101697.34;;;-1.41;92.60
54270;BME280;40181;51.560;13.000;2023-01-29T10:48:59;101693.19;;;-1.39;92.47
54270;BME280;40181;51.560;13.000;2023-01-29T10:51:45;101675.41;;;-1.36;92.10
54270;BME280;40181;51.560;13.000;2023-01-29T10:54:34;101683.13;;;-1.36;92.18
54270;BME280;40181;51.560;13.000;2023-01-29T10:57:15;101672.44;;;-1.41;91.93
54270;BME280;40181;51.560;13.000;2023-01-29T11:00:03;101671.28;;;-1.44;92.03
54270;BME280;40181;51.560;13.000;2023-01-29T11:02:42;101676.34;;;-1.46;91.59
54270;BME280;40181;51.560;13.000;2023-01-29T11:05:19;101672.81;;;-1.36;92.07
54270;BME280;40181;51.560;13.000;2023-01-29T11:08:00;101679.03;;;-1.44;91.76
54270;BME280;40181;51.560;13.000;2023-01-29T11:10:37;101652.75;;;-1.18;91.88
54270;BME280;40181;51.560;13.000;2023-01-29T11:13:14;101649.53;;;-1.15;92.16
54270;BME280;40181;51.560;13.000;2023-01-29T11:15:43;101638.91;;;-1.30;91.73
54270;BME280;40181;51.560;13.000;2023-01-29T11:18:15;101624.19;;;-1.09;91.51
54270;BME280;40181;51.560;13.000;2023-01-29T11:20:45;101623.59;;;-0.94;91.11
54270;BME280;40181;51.560;13.000;2023-01-29T11:23:25;101628.19;;;-0.90;90.84
54270;BME280;40181;51.560;13.000;2023-01-29T11:25:55;101634.56;;;-0.97;90.74
54270;BME280;40181;51.560;13.000;2023-01-29T11:28:36;101644.59;;;-0.90;90.15
54270;BME280;40181;51.560;13.000;2023-01-29T11:31:18;101651.16;;;-0.71;90.05
54270;BME280;40181;51.560;13.000;2023-01-29T11:34:00;101645.34;;;-0.68;89.20
54270;BME280;40181;51.560;13.000;2023-01-29T11:36:34;101627.72;;;-0.74;89.87
54270;BME280;40181;51.560;13.000;2023-01-29T11:39:12;101630.72;;;-0.80;89.81
54270;BME280;40181;51.560;13.000;2023-01-29T11:41:47;101631.44;;;-0.59;89.34
54270;BME280;40181;51.560;13.000;2023-01-29T11:44:19;101623.75;;;-0.47;88.39
54270;BME280;40181;51.560;13.000;2023-01-29T11:46:49;101623.97;;;-0.56;88.74
54270;BME280;40181;51.560;13.000;2023-01-29T11:49:29;101639.53;;;-0.66;88.79
54270;BME280;40181;51.560;13.000;2023-01-29T11:52:02;101611.72;;;-0.58;89.20
54270;BME280;40181;51.560;13.000;2023-01-29T11:54:36;101598.19;;;-0.44;88.62
54270;BME280;40181;51.560;13.000;2023-01-29T11:57:21;101588.47;;;-0.58;89.46
54270;BME280;40181;51.560;13.000;2023-01-29T11:59:54;101584.78;;;-0.50;88.98
54270;BME280;40181;51.560;13.000;2023-01-29T12:02:29;101591.31;;;-0.43;88.46
54270;BME280;40181;51.560;13.000;2023-01-29T12:05:05;101568.31;;;-0.52;88.79
54270;BME280;40181;51.560;13.000;2023-01-29T12:07:43;101564.72;;;-0.30;88.22
54270;BME280;40181;51.560;13.000;2023-01-29T12:10:33;101561.88;;;-0.57;88.67
54270;BME280;40181;51.560;13.000;2023-01-29T12:13:05;101552.84;;;-0.40;88.61
54270;BME280;40181;51.560;13.000;2023-01-29T12:15:44;101566.97;;;-0.35;88.32
54270;BME280;40181;51.560;13.000;2023-01-29T12:18:15;101556.75;;;-0.33;88.14
54270;BME280;40181;51.560;13.000;2023-01-29T12:20:55;101562.47;;;-0.25;87.14
54270;BME280;40181;51.560;13.000;2023-01-29T12:23:34;101564.59;;;-0.32;87.32
54270;BME280;40181;51.560;13.000;2023-01-29T12:26:11;101551.69;;;-0.32;87.68
54270;BME280;40181;51.560;13.000;2023-01-29T12:28:47;101559.78;;;-0.15;87.10
54270;BME280;40181;51.560;13.000;2023-01-29T12:31:27;101552.06;;;-0.27;86.74
54270;BME280;40181;51.560;13.000;2023-01-29T12:34:04;101560.91;;;-0.11;86.41
54270;BME280;40181;51.560;13.000;2023-01-29T12:36:47;101561.59;;;-0.38;86.88
54270;BME280;40181;51.560;13.000;2023-01-29T12:39:20;101543.94;;;-0.20;86.78
54270;BME280;40181;51.560;13.000;2023-01-29T12:41:52;101538.56;;;-0.23;87.07
54270;BME280;40181;51.560;13.000;2023-01-29T12:44:29;101542.28;;;-0.31;87.47
54270;BME280;40181;51.560;13.000;2023-01-29T12:47:05;101533.97;;;-0.27;87.11
54270;BME280;40181;51.560;13.000;2023-01-29T12:49:36;101538.78;;;-0.32;87.33
54270;BME280;40181;51.560;13.000;2023-01-29T12:52:13;101530.81;;;-0.23;86.90
54270;BME280;40181;51.560;13.000;2023-01-29T12:54:47;101525.09;;;-0.31;86.82
54270;BME280;40181;51.560;13.000;2023-01-29T12:57:22;101528.00;;;-0.38;87.21
54270;BME280;40181;51.560;13.000;2023-01-29T12:59:57;101534.84;;;-0.15;87.44
54270;BME280;40181;51.560;13.000;2023-01-29T13:02:34;101533.84;;;-0.40;87.21
54270;BME280;40181;51.560;13.000;2023-01-29T13:05:19;101519.81;;;-0.44;87.95
54270;BME280;40181;51.560;13.000;2023-01-29T13:07:57;101532.16;;;-0.28;87.71
54270;BME280;40181;51.560;13.000;2023-01-29T13:10:31;101524.31;;;-0.18;87.34
54270;BME280;40181;51.560;13.000;2023-01-29T13:13:05;101527.22;;;-0.49;87.82
54270;BME280;40181;51.560;13.000;2023-01-29T13:15:42;101522.50;;;-0.43;87.27
54270;BME280;40181;51.560;13.000;2023-01-29T13:18:39;101506.44;;;-0.26;87.40